createdAt,value
2023-10-29T00:00:02.600Z,0
2023-10-29T00:01:02.153Z,1
2023-10-29T00:02:02.773Z,1
2023-10-29T00:03:02.304Z,0
2023-10-29T00:04:02.245Z,0
2023-10-29T00:05:02.045Z,1
2023-10-29T00:07:02.018Z,8
2023-10-29T00:08:02.505Z,8
2023-10-29T00:09:02.564Z,1
2023-10-29T00:11:02.111Z,4
2023-10-29T00:12:02.062Z,4
2023-10-29T00:13:02.592Z,1
2023-10-29T00:14:01.864Z,1
2023-10-29T00:15:01.739Z,6
2023-10-29T00:16:02.477Z,6
2023-10-29T00:17:02.407Z,1
2023-10-29T00:18:03.057Z,1
2023-10-29T00:19:01.880Z,3
2023-10-29T00:20:02.416Z,3
2023-10-29T00:22:01.954Z,0
2023-10-29T00:23:02.346Z,0
2023-10-29T00:24:02.480Z,0
2023-10-29T00:25:02.804Z,1
2023-10-29T00:26:02.786Z,1
2023-10-29T00:27:02.079Z,1
2023-10-29T00:30:02.590Z,5
2023-10-29T00:31:02.899Z,1
2023-10-29T00:32:02.196Z,1
2023-10-29T00:34:02.513Z,3
2023-10-29T00:35:02.315Z,4
2023-10-29T00:37:02.051Z,1
2023-10-29T00:38:02.440Z,1
2023-10-29T00:39:01.914Z,1
2023-10-29T00:40:02.522Z,1
2023-10-29T00:41:02.124Z,3
2023-10-29T00:42:02.838Z,3
2023-10-29T00:43:02.227Z,1
2023-10-29T00:44:02.670Z,1
2023-10-29T00:46:02.917Z,4
2023-10-29T00:47:02.338Z,1
2023-10-29T00:48:02.825Z,1
2023-10-29T00:49:02.516Z,4
2023-10-29T00:50:01.726Z,4
2023-10-29T00:52:02.458Z,3
2023-10-29T00:53:01.915Z,5
2023-10-29T00:54:01.906Z,5
2023-10-29T00:55:01.581Z,0
2023-10-29T00:57:02.362Z,0
2023-10-29T00:58:02.772Z,0
2023-10-29T01:00:02.482Z,0
2023-10-29T01:01:02.399Z,1
2023-10-29T01:02:01.861Z,1
2023-10-29T01:03:02.912Z,4
2023-10-29T01:04:02.616Z,4
2023-10-29T01:05:01.860Z,1
2023-10-29T01:06:02.560Z,1
2023-10-29T01:07:00.928Z,1
2023-10-29T01:08:02.023Z,1
2023-10-29T01:09:02.621Z,5
2023-10-29T01:10:02.536Z,5
2023-10-29T01:11:02.266Z,5
2023-10-29T01:12:02.354Z,5
2023-10-29T01:13:02.234Z,1
2023-10-29T01:14:02.258Z,1
2023-10-29T01:15:02.734Z,3
2023-10-29T01:17:02.727Z,3
2023-10-29T01:18:02.847Z,3
2023-10-29T01:19:01.782Z,1
2023-10-29T01:20:02.123Z,1
2023-10-29T01:21:02.270Z,0
2023-10-29T01:22:02.688Z,0
2023-10-29T01:24:02.653Z,4
2023-10-29T01:25:02.313Z,3
2023-10-29T01:26:02.682Z,3
2023-10-29T01:27:02.359Z,3
2023-10-29T01:28:02.875Z,3
2023-10-29T01:29:02.748Z,3
2023-10-29T01:30:02.170Z,3
2023-10-29T01:31:02.056Z,4
2023-10-29T01:32:02.967Z,4
2023-10-29T01:33:01.674Z,1
2023-10-29T01:34:02.019Z,1
2023-10-29T01:37:02.818Z,0
2023-10-29T01:39:01.985Z,0
2023-10-29T01:40:01.958Z,0
2023-10-29T01:41:02.490Z,0
2023-10-29T01:42:02.246Z,0
2023-10-29T01:43:02.441Z,3
2023-10-29T01:45:01.954Z,0
2023-10-29T01:46:01.989Z,0
2023-10-29T01:48:02.281Z,1
2023-10-29T01:49:01.616Z,0
2023-10-29T01:50:02.256Z,0
2023-10-29T01:51:02.370Z,0
2023-10-29T01:52:02.258Z,0
2023-10-29T01:54:01.954Z,0
2023-10-29T01:55:02.079Z,1
2023-10-29T01:56:02.456Z,1
2023-10-29T01:59:01.853Z,1
2023-10-29T02:00:02.404Z,1
2023-10-29T02:01:01.864Z,0
2023-10-29T02:02:02.561Z,0
2023-10-29T02:04:02.160Z,1
2023-10-29T02:05:02.554Z,0
2023-10-29T02:06:02.809Z,0
2023-10-29T02:07:02.521Z,4
2023-10-29T02:08:02.007Z,4
2023-10-29T02:09:01.693Z,1
2023-10-29T02:10:02.109Z,1
2023-10-29T02:11:01.984Z,0
2023-10-29T02:12:02.858Z,0
2023-10-29T02:13:02.653Z,3
2023-10-29T02:14:02.626Z,3
2023-10-29T02:15:02.738Z,3
2023-10-29T02:17:02.610Z,1
2023-10-29T02:18:02.423Z,1
2023-10-29T02:19:02.569Z,1
2023-10-29T02:20:02.114Z,1
2023-10-29T02:21:02.133Z,3
2023-10-29T02:22:02.436Z,3
2023-10-29T02:23:02.065Z,3
2023-10-29T02:24:02.538Z,3
2023-10-29T02:25:01.733Z,4
2023-10-29T02:26:01.909Z,4
2023-10-29T02:27:01.931Z,0
2023-10-29T02:28:01.987Z,0
2023-10-29T02:29:02.273Z,1
2023-10-29T02:30:01.805Z,1
2023-10-29T02:31:02.155Z,3
2023-10-29T02:32:02.124Z,3
2023-10-29T02:33:02.318Z,0
2023-10-29T02:34:02.162Z,0
2023-10-29T02:35:02.777Z,3
2023-10-29T02:36:02.117Z,3
2023-10-29T02:37:02.331Z,4
2023-10-29T02:38:02.935Z,4
2023-10-29T02:39:02.059Z,1
2023-10-29T02:40:02.501Z,1
2023-10-29T02:41:02.667Z,1
2023-10-29T02:42:02.409Z,1
2023-10-29T02:43:02.027Z,5
2023-10-29T02:44:02.652Z,5
2023-10-29T02:45:02.738Z,4
2023-10-29T02:46:02.210Z,4
2023-10-29T02:47:02.093Z,3
2023-10-29T02:49:02.349Z,0
2023-10-29T02:50:02.851Z,0
2023-10-29T02:52:02.617Z,5
2023-10-29T02:53:02.505Z,3
2023-10-29T02:54:02.866Z,3
2023-10-29T02:55:02.286Z,4
2023-10-29T02:56:02.224Z,4
2023-10-29T02:58:02.104Z,4
2023-10-29T02:59:01.959Z,3
2023-10-29T03:01:02.633Z,0
2023-10-29T03:02:02.736Z,0
2023-10-29T03:03:02.731Z,0
2023-10-29T03:04:02.299Z,0
2023-10-29T03:05:02.462Z,4
2023-10-29T03:06:02.440Z,4
2023-10-29T03:07:02.636Z,3
2023-10-29T03:08:02.970Z,3
2023-10-29T03:09:02.283Z,3
2023-10-29T03:10:02.391Z,0
2023-10-29T03:11:02.447Z,3
2023-10-29T03:12:01.902Z,3
2023-10-29T03:13:02.839Z,0
2023-10-29T03:14:02.131Z,0
2023-10-29T03:16:01.831Z,3
2023-10-29T03:17:03.347Z,1
2023-10-29T03:18:02.087Z,1
2023-10-29T03:19:01.427Z,1
2023-10-29T03:20:02.000Z,1
2023-10-29T03:21:02.329Z,0
2023-10-29T03:22:02.385Z,0
2023-10-29T03:23:02.429Z,4
2023-10-29T03:24:02.236Z,4
2023-10-29T03:25:02.671Z,3
2023-10-29T03:26:02.694Z,3
2023-10-29T03:27:02.748Z,3
2023-10-29T03:28:02.216Z,3
2023-10-29T03:29:02.599Z,3
2023-10-29T03:30:02.184Z,3
2023-10-29T03:32:01.818Z,3
2023-10-29T03:33:02.412Z,4
2023-10-29T03:34:02.512Z,4
2023-10-29T03:35:02.591Z,3
2023-10-29T03:36:02.712Z,3
2023-10-29T03:37:01.988Z,5
2023-10-29T03:38:02.356Z,5
2023-10-29T03:39:02.380Z,4
2023-10-29T03:40:01.959Z,4
2023-10-29T03:41:02.168Z,1
2023-10-29T03:42:02.664Z,1
2023-10-29T03:45:02.219Z,4
2023-10-29T03:46:02.523Z,4
2023-10-29T03:47:02.660Z,1
2023-10-29T03:48:02.673Z,1
2023-10-29T03:49:02.831Z,1
2023-10-29T03:50:01.881Z,1
2023-10-29T03:51:02.193Z,0
2023-10-29T03:52:02.110Z,0
2023-10-29T03:53:02.617Z,1
2023-10-29T03:54:02.588Z,1
2023-10-29T03:55:02.105Z,0
2023-10-29T03:56:02.059Z,0
2023-10-29T03:57:02.169Z,0
2023-10-29T03:58:01.814Z,0
2023-10-29T03:59:02.265Z,0
2023-10-29T04:00:02.047Z,0
2023-10-29T04:01:02.332Z,1
2023-10-29T04:02:02.299Z,1
2023-10-29T04:03:02.238Z,0
2023-10-29T04:04:02.878Z,0
2023-10-29T04:06:01.940Z,0
2023-10-29T04:07:01.673Z,0
2023-10-29T04:08:02.074Z,0
2023-10-29T04:09:02.355Z,1
2023-10-29T04:10:02.713Z,1
2023-10-29T04:11:02.400Z,0
2023-10-29T04:12:02.684Z,0
2023-10-29T04:13:02.179Z,0
2023-10-29T04:15:02.615Z,0
2023-10-29T04:16:02.519Z,0
2023-10-29T04:17:01.576Z,0
2023-10-29T04:18:02.314Z,0
2023-10-29T04:20:02.163Z,1
2023-10-29T04:21:02.395Z,0
2023-10-29T04:23:01.791Z,1
2023-10-29T04:24:02.344Z,1
2023-10-29T04:25:02.224Z,0
2023-10-29T04:26:02.884Z,0
2023-10-29T04:27:02.278Z,0
2023-10-29T04:28:02.093Z,0
2023-10-29T04:29:02.292Z,3
2023-10-29T04:31:02.099Z,0
2023-10-29T04:33:02.711Z,0
2023-10-29T04:34:02.040Z,0
2023-10-29T04:35:01.765Z,0
2023-10-29T04:36:02.550Z,0
2023-10-29T04:37:01.902Z,0
2023-10-29T04:38:01.750Z,0
2023-10-29T04:39:02.536Z,0
2023-10-29T04:40:02.618Z,0
2023-10-29T04:41:02.113Z,1
2023-10-29T04:42:02.141Z,1
2023-10-29T04:43:01.934Z,0
2023-10-29T04:45:03.050Z,0
2023-10-29T04:46:02.143Z,0
2023-10-29T04:47:02.471Z,0
2023-10-29T04:50:02.227Z,0
2023-10-29T04:51:02.394Z,3
2023-10-29T04:53:02.272Z,1
2023-10-29T04:54:02.348Z,1
2023-10-29T04:55:02.734Z,3
2023-10-29T04:56:03.045Z,3
2023-10-29T04:57:02.407Z,0
2023-10-29T04:58:02.464Z,0
2023-10-29T04:59:02.381Z,0
2023-10-29T05:00:02.588Z,0
2023-10-29T05:01:02.675Z,0
2023-10-29T05:02:02.651Z,0
2023-10-29T05:03:02.028Z,0
2023-10-29T05:04:02.829Z,0
2023-10-29T05:05:01.939Z,0
2023-10-29T05:06:02.458Z,0
2023-10-29T05:07:02.020Z,0
2023-10-29T05:08:02.419Z,0
2023-10-29T05:09:02.641Z,1
2023-10-29T05:10:02.426Z,1
2023-10-29T05:11:02.569Z,0
2023-10-29T05:12:02.666Z,0
2023-10-29T05:13:02.226Z,0
2023-10-29T05:14:03.007Z,0
2023-10-29T05:15:02.469Z,1
2023-10-29T05:16:02.451Z,1
2023-10-29T05:17:02.884Z,0
2023-10-29T05:18:02.226Z,0
2023-10-29T05:19:02.067Z,3
2023-10-29T05:20:02.330Z,3
2023-10-29T05:21:03.212Z,1
2023-10-29T05:22:01.969Z,1
2023-10-29T05:23:02.264Z,0
2023-10-29T05:24:02.176Z,0
2023-10-29T05:25:02.125Z,0
2023-10-29T05:26:02.362Z,0
2023-10-29T05:27:02.239Z,0
2023-10-29T05:28:02.688Z,0
2023-10-29T05:29:02.174Z,0
2023-10-29T05:31:02.340Z,0
2023-10-29T05:32:02.972Z,0
2023-10-29T05:33:02.344Z,0
2023-10-29T05:34:02.927Z,0
2023-10-29T05:35:02.939Z,0
2023-10-29T05:36:01.993Z,0
2023-10-29T05:37:02.120Z,0
2023-10-29T05:38:02.857Z,0
2023-10-29T05:39:02.020Z,1
2023-10-29T05:40:02.224Z,1
2023-10-29T05:41:02.587Z,0
2023-10-29T05:42:02.875Z,0
2023-10-29T05:43:02.557Z,0
2023-10-29T05:44:01.950Z,0
2023-10-29T05:45:02.738Z,0
2023-10-29T05:46:02.206Z,0
2023-10-29T05:47:02.348Z,0
2023-10-29T05:48:02.838Z,0
2023-10-29T05:49:02.715Z,0
2023-10-29T05:50:02.009Z,0
2023-10-29T05:51:02.014Z,0
2023-10-29T05:52:02.650Z,0
2023-10-29T05:53:02.525Z,0
2023-10-29T05:54:02.365Z,0
2023-10-29T05:55:02.194Z,0
2023-10-29T05:57:02.576Z,0
2023-10-29T05:58:02.535Z,0
2023-10-29T06:00:02.277Z,0
2023-10-29T06:01:03.082Z,0
2023-10-29T06:02:02.064Z,0
2023-10-29T06:03:01.902Z,1
2023-10-29T06:04:01.758Z,1
2023-10-29T06:05:02.804Z,1
2023-10-29T06:06:02.142Z,1
2023-10-29T06:07:02.505Z,0
2023-10-29T06:08:02.686Z,0
2023-10-29T06:09:13.142Z,1
2023-10-29T06:10:02.154Z,1
2023-10-29T06:11:01.750Z,3
2023-10-29T06:14:01.873Z,1
2023-10-29T06:16:02.555Z,3
2023-10-29T06:17:15.578Z,0
2023-10-29T06:18:02.599Z,0
2023-10-29T06:19:02.156Z,1
2023-10-29T06:20:01.921Z,1
2023-10-29T06:21:02.628Z,1
2023-10-29T06:22:02.536Z,1
2023-10-29T06:24:02.766Z,1
2023-10-29T06:25:01.850Z,1
2023-10-29T06:26:02.861Z,1
2023-10-29T06:28:02.368Z,1
2023-10-29T06:29:02.594Z,0
2023-10-29T06:30:02.574Z,0
2023-10-29T06:31:02.561Z,0
2023-10-29T06:32:02.455Z,0
2023-10-29T06:34:02.524Z,0
2023-10-29T06:36:01.979Z,1
2023-10-29T06:37:02.503Z,1
2023-10-29T06:38:02.070Z,1
2023-10-29T06:39:03.016Z,1
2023-10-29T06:41:02.263Z,1
2023-10-29T06:42:02.619Z,1
2023-10-29T06:43:02.038Z,3
2023-10-29T06:44:02.873Z,3
2023-10-29T06:45:02.695Z,0
2023-10-29T06:46:02.768Z,0
2023-10-29T06:47:02.254Z,0
2023-10-29T06:48:03.110Z,0
2023-10-29T06:49:02.118Z,3
2023-10-29T06:50:01.843Z,3
2023-10-29T06:51:02.908Z,1
2023-10-29T06:52:02.554Z,1
2023-10-29T06:55:01.772Z,3
2023-10-29T06:56:02.322Z,3
2023-10-29T06:57:05.493Z,0
2023-10-29T06:58:02.726Z,0
2023-10-29T06:59:02.265Z,1
2023-10-29T07:02:02.443Z,1
2023-10-29T07:03:02.521Z,1
2023-10-29T07:04:02.448Z,1
2023-10-29T07:06:02.666Z,3
2023-10-29T07:07:02.050Z,0
2023-10-29T07:08:01.972Z,0
2023-10-29T07:09:02.014Z,1
2023-10-29T07:10:02.431Z,1
2023-10-29T07:12:02.295Z,1
2023-10-29T07:13:02.277Z,1
2023-10-29T07:14:02.366Z,1
2023-10-29T07:15:01.872Z,1
2023-10-29T07:17:02.359Z,1
2023-10-29T07:18:02.640Z,1
2023-10-29T07:19:02.389Z,3
2023-10-29T07:20:03.113Z,3
2023-10-29T07:21:02.012Z,0
2023-10-29T07:22:01.877Z,0
2023-10-29T07:23:02.018Z,1
2023-10-29T07:24:02.641Z,1
2023-10-29T07:27:02.360Z,1
2023-10-29T07:28:01.877Z,1
2023-10-29T07:29:02.775Z,1
2023-10-29T07:31:02.898Z,0
2023-10-29T07:32:02.441Z,0
2023-10-29T07:33:02.519Z,1
2023-10-29T07:34:02.683Z,1
2023-10-29T07:35:02.185Z,1
2023-10-29T07:36:01.970Z,1
2023-10-29T07:38:02.650Z,1
2023-10-29T07:39:01.879Z,0
2023-10-29T07:42:01.943Z,1
2023-10-29T07:43:02.258Z,1
2023-10-29T07:44:02.152Z,1
2023-10-29T07:45:02.486Z,4
2023-10-29T07:47:02.625Z,3
2023-10-29T07:48:02.213Z,3
2023-10-29T07:49:02.510Z,1
2023-10-29T07:50:02.000Z,1
2023-10-29T07:51:02.437Z,0
2023-10-29T07:52:02.377Z,0
2023-10-29T07:53:02.310Z,0
2023-10-29T07:54:02.697Z,0
2023-10-29T07:55:02.799Z,4
2023-10-29T07:56:02.405Z,4
2023-10-29T07:57:07.230Z,5
2023-10-29T07:58:02.625Z,5
2023-10-29T07:59:01.967Z,0
2023-10-29T08:00:02.365Z,0
2023-10-29T08:02:02.047Z,1
2023-10-29T08:03:02.236Z,3
2023-10-29T08:04:02.814Z,3
2023-10-29T08:05:01.907Z,1
2023-10-29T08:06:02.270Z,1
2023-10-29T08:07:02.083Z,1
2023-10-29T08:08:02.864Z,1
2023-10-29T08:09:02.276Z,1
2023-10-29T08:10:01.825Z,1
2023-10-29T08:11:02.275Z,0
2023-10-29T08:12:02.570Z,0
2023-10-29T08:13:02.127Z,1
2023-10-29T08:14:02.510Z,1
2023-10-29T08:15:02.076Z,1
2023-10-29T08:17:02.511Z,1
2023-10-29T08:18:02.531Z,1
2023-10-29T08:19:02.471Z,1
2023-10-29T08:21:02.169Z,0
2023-10-29T08:22:02.344Z,0
2023-10-29T08:23:01.989Z,3
2023-10-29T08:24:02.892Z,3
2023-10-29T08:25:01.978Z,1
2023-10-29T08:26:02.815Z,1
2023-10-29T08:27:02.670Z,0
2023-10-29T08:28:02.564Z,0
2023-10-29T08:29:02.686Z,1
2023-10-29T08:30:04.333Z,1
2023-10-29T08:31:02.451Z,1
2023-10-29T08:32:02.020Z,1
2023-10-29T08:33:02.542Z,0
2023-10-29T08:34:02.741Z,0
2023-10-29T08:35:02.764Z,0
2023-10-29T08:36:02.509Z,0
2023-10-29T08:37:02.056Z,0
2023-10-29T08:38:02.164Z,0
2023-10-29T08:39:02.086Z,0
2023-10-29T08:40:01.980Z,0
2023-10-29T08:41:02.363Z,0
2023-10-29T08:42:02.712Z,1
2023-10-29T08:45:02.761Z,1
2023-10-29T08:46:02.213Z,1
2023-10-29T08:47:03.065Z,5
2023-10-29T08:49:02.828Z,3
2023-10-29T08:50:02.655Z,3
2023-10-29T08:51:02.792Z,3
2023-10-29T08:52:02.120Z,3
2023-10-29T08:53:02.338Z,4
2023-10-29T08:54:02.884Z,4
2023-10-29T08:55:02.635Z,3
2023-10-29T08:57:02.507Z,3
2023-10-29T08:58:02.592Z,3
2023-10-29T08:59:02.507Z,1
2023-10-29T09:00:02.562Z,1
2023-10-29T09:01:02.077Z,4
2023-10-29T09:02:02.694Z,4
2023-10-29T09:03:01.914Z,1
2023-10-29T09:04:02.205Z,1
2023-10-29T09:06:01.757Z,1
2023-10-29T09:07:02.192Z,0
2023-10-29T09:08:03.144Z,0
2023-10-29T09:10:02.001Z,3
2023-10-29T09:11:02.067Z,3
2023-10-29T09:12:02.156Z,1
2023-10-29T09:13:02.601Z,0
2023-10-29T09:14:02.573Z,0
2023-10-29T09:15:02.505Z,1
2023-10-29T09:16:02.802Z,1
2023-10-29T09:17:02.763Z,0
2023-10-29T09:18:02.276Z,0
2023-10-29T09:19:02.187Z,1
2023-10-29T09:20:02.920Z,1
2023-10-29T09:21:02.289Z,0
2023-10-29T09:22:02.024Z,0
2023-10-29T09:23:02.737Z,1
2023-10-29T09:24:02.535Z,1
2023-10-29T09:25:02.183Z,3
2023-10-29T09:27:02.157Z,1
2023-10-29T09:28:02.867Z,1
2023-10-29T09:29:02.695Z,1
2023-10-29T09:30:02.049Z,1
2023-10-29T09:31:02.010Z,3
2023-10-29T09:32:02.635Z,3
2023-10-29T09:33:02.708Z,3
2023-10-29T09:34:02.696Z,3
2023-10-29T09:35:02.835Z,0
2023-10-29T09:36:02.299Z,0
2023-10-29T09:37:02.265Z,0
2023-10-29T09:38:02.214Z,0
2023-10-29T09:40:02.780Z,1
2023-10-29T09:41:02.173Z,3
2023-10-29T09:42:02.201Z,3
2023-10-29T09:44:02.300Z,3
2023-10-29T09:45:02.457Z,4
2023-10-29T09:46:02.909Z,4
2023-10-29T09:47:02.368Z,1
2023-10-29T09:48:02.069Z,1
2023-10-29T09:50:02.528Z,4
2023-10-29T09:51:02.119Z,0
2023-10-29T09:52:02.595Z,0
2023-10-29T09:53:02.451Z,0
2023-10-29T09:54:02.944Z,0
2023-10-29T09:55:02.811Z,1
2023-10-29T09:56:02.731Z,1
2023-10-29T09:57:02.784Z,1
2023-10-29T09:58:02.308Z,1
2023-10-29T10:00:03.038Z,3
2023-10-29T10:01:02.441Z,3
2023-10-29T10:02:02.439Z,3
2023-10-29T10:03:02.553Z,3
2023-10-29T10:04:02.979Z,3
2023-10-29T10:05:02.287Z,1
2023-10-29T10:06:02.529Z,1
2023-10-29T10:07:01.936Z,5
2023-10-29T10:08:02.236Z,5
2023-10-29T10:09:02.678Z,1
2023-10-29T10:10:02.155Z,1
2023-10-29T10:11:02.132Z,1
2023-10-29T10:12:02.924Z,1
2023-10-29T10:13:01.510Z,0
2023-10-29T10:14:02.789Z,0
2023-10-29T10:15:02.771Z,4
2023-10-29T10:16:02.867Z,4
2023-10-29T10:18:02.849Z,5
2023-10-29T10:19:02.876Z,3
2023-10-29T10:20:02.131Z,3
2023-10-29T10:21:01.863Z,6
2023-10-29T10:22:02.293Z,6
2023-10-29T10:23:02.308Z,4
2023-10-29T10:24:02.563Z,4
2023-10-29T10:25:02.401Z,1
2023-10-29T10:26:02.273Z,1
2023-10-29T10:27:02.248Z,1
2023-10-29T10:28:02.181Z,1
2023-10-29T10:29:02.357Z,1
2023-10-29T10:30:02.820Z,1
2023-10-29T10:31:02.614Z,4
2023-10-29T10:32:02.730Z,4
2023-10-29T10:34:02.892Z,1
2023-10-29T10:35:02.831Z,3
2023-10-29T10:37:02.903Z,3
2023-10-29T10:38:02.443Z,3
2023-10-29T10:39:02.159Z,1
2023-10-29T10:40:02.341Z,1
2023-10-29T10:41:02.267Z,4
2023-10-29T10:42:02.158Z,4
2023-10-29T10:43:02.804Z,3
2023-10-29T10:44:02.748Z,3
2023-10-29T10:45:02.153Z,5
2023-10-29T10:47:02.879Z,4
2023-10-29T10:48:02.732Z,4
2023-10-29T10:49:02.083Z,3
2023-10-29T10:50:02.256Z,3
2023-10-29T10:51:02.913Z,4
2023-10-29T10:52:02.234Z,4
2023-10-29T10:53:02.302Z,3
2023-10-29T10:54:01.926Z,3
2023-10-29T10:56:04.542Z,5
2023-10-29T10:57:02.316Z,4
2023-10-29T10:58:02.776Z,4
2023-10-29T10:59:02.708Z,3
2023-10-29T11:00:02.672Z,3
2023-10-29T11:01:04.112Z,5
2023-10-29T11:02:02.315Z,5
2023-10-29T11:03:01.859Z,1
2023-10-29T11:04:02.381Z,1
2023-10-29T11:05:03.031Z,3
2023-10-29T11:06:02.383Z,3
2023-10-29T11:07:01.964Z,0
2023-10-29T11:08:02.458Z,0
2023-10-29T11:09:02.065Z,1
2023-10-29T11:11:02.356Z,0
2023-10-29T11:12:02.707Z,0
2023-10-29T11:13:01.976Z,3
2023-10-29T11:15:02.146Z,4
2023-10-29T11:16:02.184Z,4
2023-10-29T11:17:01.840Z,0
2023-10-29T11:18:01.765Z,0
2023-10-29T11:19:02.028Z,0
2023-10-29T11:20:02.710Z,0
2023-10-29T11:21:02.615Z,1
2023-10-29T11:22:02.008Z,1
2023-10-29T11:23:02.107Z,0
2023-10-29T11:24:01.785Z,0
2023-10-29T11:25:02.930Z,1
2023-10-29T11:27:02.326Z,1
2023-10-29T11:28:02.005Z,3
2023-10-29T11:29:01.831Z,0
2023-10-29T11:30:03.227Z,0
2023-10-29T11:31:02.295Z,1
2023-10-29T11:33:02.750Z,1
2023-10-29T11:34:02.271Z,1
2023-10-29T11:35:02.748Z,0
2023-10-29T11:36:02.603Z,0
2023-10-29T11:37:02.511Z,0
2023-10-29T11:38:02.347Z,0
2023-10-29T11:40:02.723Z,0
2023-10-29T11:41:02.118Z,1
2023-10-29T11:42:02.066Z,1
2023-10-29T11:43:02.509Z,5
2023-10-29T11:44:02.061Z,5
2023-10-29T11:45:02.489Z,5
2023-10-29T11:46:01.892Z,5
2023-10-29T11:48:02.766Z,5
2023-10-29T11:49:02.019Z,3
2023-10-29T11:50:01.872Z,3
2023-10-29T11:52:02.254Z,1
2023-10-29T11:53:02.720Z,0
2023-10-29T11:54:02.178Z,0
2023-10-29T11:55:02.134Z,0
2023-10-29T11:56:02.352Z,0
2023-10-29T11:57:02.262Z,0
2023-10-29T11:58:02.368Z,0
2023-10-29T11:59:02.553Z,0
2023-10-29T12:00:02.298Z,0
2023-10-29T12:01:02.404Z,0
2023-10-29T12:03:02.349Z,1
2023-10-29T12:04:02.290Z,1
2023-10-29T12:05:02.671Z,1
2023-10-29T12:06:01.921Z,1
2023-10-29T12:07:02.097Z,3
2023-10-29T12:08:02.370Z,3
2023-10-29T12:09:02.172Z,0
2023-10-29T12:10:02.708Z,0
2023-10-29T12:11:02.902Z,0
2023-10-29T12:12:01.563Z,0
2023-10-29T12:13:02.050Z,1
2023-10-29T12:14:01.777Z,1
2023-10-29T12:17:01.877Z,1
2023-10-29T12:18:03.029Z,1
2023-10-29T12:19:01.777Z,0
2023-10-29T12:20:02.004Z,0
2023-10-29T12:21:02.261Z,0
2023-10-29T12:22:01.943Z,0
2023-10-29T12:23:02.593Z,1
2023-10-29T12:24:02.654Z,1
2023-10-29T12:25:02.143Z,1
2023-10-29T12:26:02.925Z,1
2023-10-29T12:27:02.128Z,3
2023-10-29T12:28:02.157Z,3
2023-10-29T12:29:01.852Z,3
2023-10-29T12:30:02.137Z,3
2023-10-29T12:31:01.900Z,1
2023-10-29T12:32:02.362Z,1
2023-10-29T12:33:02.431Z,0
2023-10-29T12:34:01.909Z,0
2023-10-29T12:35:02.779Z,1
2023-10-29T12:36:01.574Z,1
2023-10-29T12:37:02.913Z,1
2023-10-29T12:38:02.568Z,1
2023-10-29T12:39:02.750Z,1
2023-10-29T12:40:02.707Z,1
2023-10-29T12:42:01.999Z,0
2023-10-29T12:43:02.771Z,3
2023-10-29T12:44:02.527Z,3
2023-10-29T12:45:02.420Z,3
2023-10-29T12:46:02.841Z,3
2023-10-29T12:48:02.158Z,1
2023-10-29T12:49:02.509Z,1
2023-10-29T12:51:02.603Z,0
2023-10-29T12:52:02.621Z,0
2023-10-29T12:53:01.763Z,1
2023-10-29T12:54:02.702Z,1
2023-10-29T12:55:02.678Z,0
2023-10-29T12:57:02.106Z,3
2023-10-29T12:58:02.201Z,3
2023-10-29T12:59:02.047Z,0
2023-10-29T13:00:02.205Z,0
2023-10-29T13:01:02.425Z,0
2023-10-29T13:02:02.723Z,0
2023-10-29T13:03:02.309Z,0
2023-10-29T13:04:02.844Z,0
2023-10-29T13:05:02.153Z,3
2023-10-29T13:06:02.186Z,3
2023-10-29T13:07:02.241Z,3
2023-10-29T13:08:02.686Z,3
2023-10-29T13:09:02.126Z,1
2023-10-29T13:10:02.853Z,1
2023-10-29T13:11:01.994Z,3
2023-10-29T13:13:02.910Z,3
2023-10-29T13:14:08.821Z,3
2023-10-29T13:15:01.958Z,1
2023-10-29T13:16:02.998Z,1
2023-10-29T13:17:01.582Z,0
2023-10-29T13:18:02.592Z,0
2023-10-29T13:19:02.072Z,0
2023-10-29T13:20:02.833Z,0
2023-10-29T13:21:01.938Z,1
2023-10-29T13:22:02.372Z,1
2023-10-29T13:23:02.246Z,4
2023-10-29T13:24:02.909Z,4
2023-10-29T13:26:01.787Z,5
2023-10-29T13:27:02.505Z,3
2023-10-29T13:29:02.949Z,4
2023-10-29T13:30:02.379Z,4
2023-10-29T13:31:02.117Z,0
2023-10-29T13:33:02.132Z,0
2023-10-29T13:34:02.563Z,0
2023-10-29T13:35:02.172Z,4
2023-10-29T13:36:02.243Z,4
2023-10-29T13:37:01.995Z,4
2023-10-29T13:40:02.526Z,1
2023-10-29T13:41:02.332Z,1
2023-10-29T13:42:01.943Z,1
2023-10-29T13:43:02.327Z,1
2023-10-29T13:44:02.503Z,1
2023-10-29T13:46:02.878Z,0
2023-10-29T13:47:02.490Z,1
2023-10-29T13:48:02.537Z,1
2023-10-29T13:49:02.605Z,1
2023-10-29T13:50:02.237Z,1
2023-10-29T13:51:02.555Z,0
2023-10-29T13:52:02.815Z,0
2023-10-29T13:53:02.761Z,3
2023-10-29T13:56:02.081Z,3
2023-10-29T13:57:02.926Z,3
2023-10-29T13:58:02.361Z,3
2023-10-29T13:59:02.228Z,3
2023-10-29T14:00:02.276Z,3
2023-10-29T14:01:02.948Z,5
2023-10-29T14:02:02.299Z,5
2023-10-29T14:03:02.537Z,5
2023-10-29T14:04:02.512Z,5
2023-10-29T14:05:02.740Z,5
2023-10-29T14:06:02.050Z,5
2023-10-29T14:07:02.580Z,5
2023-10-29T14:08:02.779Z,5
2023-10-29T14:09:02.337Z,5
2023-10-29T14:10:02.343Z,5
2023-10-29T14:11:02.413Z,4
2023-10-29T14:12:02.747Z,4
2023-10-29T14:13:02.157Z,3
2023-10-29T14:14:02.497Z,3
2023-10-29T14:15:02.637Z,4
2023-10-29T14:16:02.704Z,4
2023-10-29T14:17:02.714Z,1
2023-10-29T14:18:02.649Z,1
2023-10-29T14:19:02.594Z,4
2023-10-29T14:21:02.420Z,1
2023-10-29T14:22:02.420Z,1
2023-10-29T14:23:02.479Z,1
2023-10-29T14:24:02.598Z,1
2023-10-29T14:26:02.122Z,1
2023-10-29T14:27:02.200Z,5
2023-10-29T14:28:02.289Z,5
2023-10-29T14:29:02.702Z,4
2023-10-29T14:30:02.478Z,4
2023-10-29T14:31:02.851Z,4
2023-10-29T14:32:02.300Z,4
2023-10-29T14:33:02.225Z,3
2023-10-29T14:34:02.143Z,3
2023-10-29T14:35:02.724Z,3
2023-10-29T14:36:02.399Z,3
2023-10-29T14:37:02.462Z,3
2023-10-29T14:39:02.376Z,3
2023-10-29T14:40:02.350Z,3
2023-10-29T14:41:02.264Z,1
2023-10-29T14:42:02.337Z,1
2023-10-29T14:43:20.864Z,3
2023-10-29T14:44:02.880Z,3
2023-10-29T14:45:02.766Z,1
2023-10-29T14:47:02.244Z,4
2023-10-29T14:48:02.826Z,4
2023-10-29T14:49:02.977Z,4
2023-10-29T14:50:02.461Z,4
2023-10-29T14:51:02.589Z,3
2023-10-29T14:52:02.491Z,3
2023-10-29T14:53:02.104Z,4
2023-10-29T14:54:02.423Z,4
2023-10-29T14:55:02.851Z,4
2023-10-29T14:56:02.573Z,4
2023-10-29T14:57:13.822Z,6
2023-10-29T14:58:01.912Z,6
2023-10-29T14:59:02.792Z,6
2023-10-29T15:00:02.233Z,6
2023-10-29T15:01:02.854Z,5
2023-10-29T15:02:02.006Z,5
2023-10-29T15:03:02.370Z,4
2023-10-29T15:04:03.011Z,4
2023-10-29T15:05:02.085Z,8
2023-10-29T15:06:01.972Z,8
2023-10-29T15:07:02.730Z,8
2023-10-29T15:08:02.695Z,8
2023-10-29T15:09:02.490Z,6
2023-10-29T15:10:01.954Z,6
2023-10-29T15:11:02.404Z,4
2023-10-29T15:12:02.081Z,4
2023-10-29T15:13:02.502Z,1
2023-10-29T15:14:02.445Z,1
2023-10-29T15:16:02.489Z,3
2023-10-29T15:17:02.296Z,6
2023-10-29T15:18:02.173Z,6
2023-10-29T15:19:04.783Z,6
2023-10-29T15:21:02.206Z,4
2023-10-29T15:22:02.577Z,4
2023-10-29T15:23:02.774Z,5
2023-10-29T15:24:02.301Z,5
2023-10-29T15:25:02.071Z,4
2023-10-29T15:26:02.926Z,4
2023-10-29T15:27:02.584Z,5
2023-10-29T15:28:02.719Z,5
2023-10-29T15:29:02.299Z,5
2023-10-29T15:30:02.266Z,5
2023-10-29T15:31:02.924Z,3
2023-10-29T15:32:02.445Z,3
2023-10-29T15:34:02.125Z,7
2023-10-29T15:35:01.931Z,5
2023-10-29T15:36:02.944Z,5
2023-10-29T15:37:02.347Z,1
2023-10-29T15:39:02.245Z,3
2023-10-29T15:41:01.828Z,4
2023-10-29T15:42:02.296Z,4
2023-10-29T15:43:02.253Z,1
2023-10-29T15:44:02.578Z,1
2023-10-29T15:45:02.151Z,3
2023-10-29T15:46:02.850Z,3
2023-10-29T15:47:02.769Z,5
2023-10-29T15:48:02.868Z,5
2023-10-29T15:49:02.215Z,4
2023-10-29T15:50:02.757Z,4
2023-10-29T15:51:02.676Z,4
2023-10-29T15:52:02.486Z,4
2023-10-29T15:53:01.920Z,3
2023-10-29T15:54:02.893Z,3
2023-10-29T15:56:02.406Z,3
2023-10-29T15:57:02.149Z,4
2023-10-29T15:59:02.445Z,3
2023-10-29T16:01:02.261Z,1
2023-10-29T16:03:02.352Z,3
2023-10-29T16:06:03.010Z,1
2023-10-29T16:07:02.248Z,1
2023-10-29T16:08:02.700Z,1
2023-10-29T16:09:02.393Z,0
2023-10-29T16:10:02.351Z,0
2023-10-29T16:11:01.873Z,0
2023-10-29T16:12:02.475Z,0
2023-10-29T16:13:01.913Z,0
2023-10-29T16:14:02.495Z,0
2023-10-29T16:15:02.370Z,0
2023-10-29T16:16:03.075Z,0
2023-10-29T16:18:02.549Z,0
2023-10-29T16:19:02.312Z,1
2023-10-29T16:20:01.887Z,1
2023-10-29T16:22:02.192Z,0
2023-10-29T16:24:02.305Z,1
2023-10-29T16:27:02.004Z,0
2023-10-29T16:28:02.176Z,0
2023-10-29T16:29:01.848Z,1
2023-10-29T16:30:02.617Z,1
2023-10-29T16:31:02.431Z,0
2023-10-29T16:33:03.034Z,0
2023-10-29T16:34:02.376Z,0
2023-10-29T16:35:01.954Z,0
2023-10-29T16:36:02.327Z,0
2023-10-29T16:37:02.253Z,1
2023-10-29T16:38:02.716Z,1
2023-10-29T16:39:02.577Z,1
2023-10-29T16:41:02.249Z,0
2023-10-29T16:42:02.570Z,0
2023-10-29T16:43:02.298Z,1
2023-10-29T16:44:02.429Z,1
2023-10-29T16:45:02.345Z,0
2023-10-29T16:46:02.936Z,0
2023-10-29T16:47:02.181Z,3
2023-10-29T16:48:02.900Z,3
2023-10-29T16:52:01.979Z,1
2023-10-29T16:53:02.989Z,1
2023-10-29T16:54:01.814Z,1
2023-10-29T16:55:02.427Z,3
2023-10-29T16:56:02.009Z,3
2023-10-29T16:58:02.773Z,4
2023-10-29T16:59:02.252Z,1
2023-10-29T17:00:02.213Z,1
2023-10-29T17:01:02.548Z,3